EST,Max TemperatureF,Mean TemperatureF,Min TemperatureF,Max Dew PointF,MeanDew PointF,Min DewpointF,Max Humidity, Mean Humidity, Min Humidity, Max Sea Level PressureIn, Mean Sea Level PressureIn, Min Sea Level PressureIn, Max VisibilityMiles, Mean VisibilityMiles, Min VisibilityMiles, Max Wind SpeedMPH, Mean Wind SpeedMPH, Max Gust SpeedMPH,PrecipitationIn, CloudCover, Events, WindDirDegrees
2013-11-1,55,50,44,55,47,45,100,100,99,29.65,29.41,29.09,10,6,1,26,13,34,0.24,8,Rain,264
2013-11-2,46,42,38,45,39,32,100,88,65,30.11,29.85,29.64,10,10,5,10,3,16,0.04,7,Rain,357
2013-11-3,45,38,31,35,32,31,100,80,60,30.37,30.28,30.11,10,10,10,12,4,,0.00,6,,126
2013-11-4,48,41,34,33,30,23,87,64,38,30.38,30.29,30.19,10,10,10,18,11,30,0.00,2,,151
2013-11-5,58,51,45,47,44,34,84,74,65,30.28,30.20,30.03,10,10,10,14,5,18,0.00,8,Rain,178
2013-11-6,56,47,38,56,48,38,100,96,72,30.02,29.85,29.67,10,7,2,18,10,33,0.58,8,Rain,234
2013-11-7,42,38,34,38,28,24,97,70,48,30.11,30.07,30.00,10,10,5,17,8,26,0.01,7,Snow,280
2013-11-8,44,38,34,30,28,24,83,68,47,30.24,30.16,30.05,10,10,10,13,6,20,0.00,6,,243
2013-11-9,51,44,38,40,35,29,84,68,55,30.05,29.82,29.71,10,10,5,26,11,39,0.00,8,Rain,232
2013-11-10,44,38,32,38,31,27,93,71,54,30.22,30.10,29.87,10,9,2,16,10,28,0.04,6,Rain,284
2013-11-11,41,34,26,37,29,19,100,84,66,30.36,30.13,30.00,10,8,1,18,7,25,0.09,8,Rain-Snow,310
2013-11-12,33,26,18,24,20,16,96,77,51,30.54,30.48,30.37,10,10,3,18,6,24,0.00,4,Snow,312
2013-11-13,42,28,16,28,21,14,98,68,36,30.46,30.25,30.03,10,10,10,25,7,36,0.00,0,,235
2013-11-14,47,42,37,32,30,25,80,64,53,30.03,29.94,29.89,10,10,10,18,11,29,0.00,1,,225
2013-11-15,51,41,32,36,33,30,89,67,50,29.97,29.92,29.89,10,10,10,14,6,23,0.00,4,Rain,206
2013-11-16,55,42,29,54,41,30,100,88,75,29.99,29.84,29.61,10,8,3,20,6,29,0.32,6,Rain,165
2013-11-17,62,53,44,62,56,41,100,99,89,29.61,29.36,29.08,10,7,2,25,12,43,1.28,8,Rain,210
2013-11-18,43,38,33,40,28,23,87,70,62,30.12,29.78,29.43,10,10,3,24,17,36,0.00,8,Snow,287
2013-11-19,40,33,27,24,22,19,81,63,44,30.33,30.28,30.13,10,10,10,9,4,16,0.00,2,,324
2013-11-20,42,34,27,29,25,22,83,69,52,30.35,30.27,30.17,10,10,10,17,6,24,0.00,1,,148
2013-11-21,44,38,33,43,39,28,100,97,68,30.20,30.16,30.14,10,5,1,7,2,,0.06,8,Rain-Snow,165
2013-11-22,41,32,24,42,31,22,100,90,69,30.37,30.26,30.13,10,8,0,16,5,25,0.00,6,Fog-Rain-Snow,327
2013-11-23,29,22,14,23,14,9,86,72,54,30.51,30.38,30.25,10,9,0,20,10,29,0.00,4,Snow,314
2013-11-24,23,18,14,13,11,9,85,73,56,30.55,30.46,30.25,10,10,4,13,6,17,0.00,5,Snow,260
2013-11-25,32,26,20,28,22,12,96,78,61,30.25,30.03,29.93,10,8,0,21,8,31,0.00,5,Snow,226
2013-11-26,33,28,23,32,26,16,100,86,74,30.01,29.96,29.91,10,8,0,13,6,23,0.00,8,Snow,258
2013-11-27,27,21,15,17,13,9,89,73,48,30.16,30.05,29.99,10,10,7,20,8,24,0.00,4,Snow,319
2013-11-28,26,20,14,26,20,13,100,95,85,30.39,30.22,30.16,10,5,0,7,1,,0.00,8,Fog-Snow,147
2013-11-29,28,24,20,27,22,20,100,95,80,30.60,30.51,30.39,10,5,0,7,2,,0.00,6,Fog-Snow,150
2013-11-30,41,32,22,32,26,18,85,74,64,30.44,30.18,30.01,10,9,7,12,5,17,0.00,3,,184